createdAt,value
2023-01-15T00:00:47.852Z,14.25
2023-01-15T00:03:51.170Z,18.92
2023-01-15T00:06:54.850Z,24.52
2023-01-15T00:09:57.596Z,18.48
2023-01-15T00:13:00.218Z,18.20
2023-01-15T00:16:12.433Z,18.40
2023-01-15T00:19:16.183Z,13.40
2023-01-15T00:22:18.684Z,16.92
2023-01-15T00:25:40.228Z,13.18
2023-01-15T00:28:42.752Z,16.85
2023-01-15T00:32:02.243Z,14.93
2023-01-15T00:35:06.480Z,9.40
2023-01-15T00:38:08.984Z,14.18
2023-01-15T00:41:11.531Z,11.75
2023-01-15T00:44:14.357Z,15.35
2023-01-15T00:47:16.984Z,14.90
2023-01-15T00:50:19.620Z,20.27
2023-01-15T00:53:22.322Z,24.65
2023-01-15T00:56:24.912Z,23.90
2023-01-15T00:59:28.120Z,24.83
2023-01-15T01:02:30.852Z,23.25
2023-01-15T01:05:33.520Z,14.80
2023-01-15T01:08:36.057Z,12.52
2023-01-15T01:11:38.640Z,11.68
2023-01-15T01:14:41.238Z,11.50
2023-01-15T01:17:43.822Z,15.32
2023-01-15T01:20:46.322Z,9.63
2023-01-15T01:23:49.191Z,11.57
2023-01-15T01:26:54.503Z,10.07
2023-01-15T01:29:57.394Z,10.38
2023-01-15T01:32:59.931Z,16.35
2023-01-15T01:36:02.423Z,10.88
2023-01-15T01:39:06.180Z,10.35
2023-01-15T01:42:17.506Z,15.25
2023-01-15T01:45:31.805Z,15.90
2023-01-15T01:48:34.618Z,13.35
2023-01-15T01:51:43.672Z,10.23
2023-01-15T01:54:47.663Z,8.10
2023-01-15T01:57:52.238Z,7.85
2023-01-15T02:00:54.896Z,5.85
2023-01-15T02:03:57.894Z,5.53
2023-01-15T02:07:01.385Z,7.28
2023-01-15T02:10:04.310Z,8.50
2023-01-15T02:13:17.008Z,6.28
2023-01-15T02:16:24.629Z,8.07
2023-01-15T02:19:46.387Z,8.73
2023-01-15T02:22:57.793Z,7.10
2023-01-15T02:26:11.274Z,11.68
2023-01-15T02:29:18.636Z,7.97
2023-01-15T02:32:33.395Z,7.45
2023-01-15T02:35:46.546Z,6.15
2023-01-15T02:38:51.569Z,5.95
2023-01-15T02:41:57.603Z,4.55
2023-01-15T02:45:06.564Z,4.57
2023-01-15T02:48:15.140Z,6.13
2023-01-15T02:51:23.386Z,5.70
2023-01-15T02:54:30.214Z,8.88
2023-01-15T02:57:35.418Z,4.60
2023-01-15T03:00:41.775Z,5.60
2023-01-15T03:03:50.531Z,6.15
2023-01-15T03:07:22.288Z,6.50
2023-01-15T03:10:36.772Z,5.43
2023-01-15T03:13:49.409Z,7.28
2023-01-15T03:17:02.072Z,5.93
2023-01-15T03:20:17.627Z,9.27
2023-01-15T03:23:22.349Z,5.38
2023-01-15T03:26:24.843Z,6.93
2023-01-15T03:29:35.099Z,6.40
2023-01-15T03:32:37.818Z,9.77
2023-01-15T03:35:53.004Z,7.15
2023-01-15T03:39:05.045Z,8.00
2023-01-15T03:43:10.943Z,7.20
2023-01-15T03:46:38.453Z,5.38
2023-01-15T03:49:53.184Z,7.32
2023-01-15T03:53:32.441Z,4.38
2023-01-15T03:56:48.465Z,7.03
2023-01-15T03:59:55.219Z,5.82
2023-01-15T04:02:59.128Z,5.20
2023-01-15T04:06:04.539Z,4.13
2023-01-15T04:09:09.431Z,6.63
2023-01-15T04:12:12.739Z,12.27
2023-01-15T04:18:22.550Z,7.20
2023-01-15T04:21:25.278Z,5.45
2023-01-15T04:24:27.987Z,6.03
2023-01-15T04:27:30.508Z,4.75
2023-01-15T04:30:33.917Z,7.72
2023-01-15T04:33:36.946Z,4.60
2023-01-15T04:36:39.477Z,3.70
2023-01-15T04:39:41.978Z,5.72
2023-01-15T04:43:03.094Z,4.32
2023-01-15T04:46:05.634Z,4.38
2023-01-15T04:49:11.701Z,6.72
2023-01-15T04:52:15.074Z,5.05
2023-01-15T04:55:18.079Z,5.38
2023-01-15T04:58:20.613Z,5.50
2023-01-15T05:01:23.176Z,6.03
2023-01-15T05:04:26.051Z,4.82
2023-01-15T05:07:28.544Z,5.63
2023-01-15T05:10:31.064Z,6.18
2023-01-15T05:13:34.162Z,5.13
2023-01-15T05:16:38.394Z,4.70
2023-01-15T05:19:40.909Z,6.07
2023-01-15T05:22:43.475Z,9.30
2023-01-15T05:25:45.989Z,4.30
2023-01-15T05:28:49.294Z,8.85
2023-01-15T05:31:51.881Z,5.55
2023-01-15T05:34:54.411Z,6.47
2023-01-15T05:37:56.954Z,4.00
2023-01-15T05:40:59.549Z,5.50
2023-01-15T05:44:04.886Z,5.97
2023-01-15T05:47:08.093Z,7.15
2023-01-15T05:50:11.218Z,4.60
2023-01-15T05:53:13.717Z,3.80
2023-01-15T05:56:16.225Z,4.40
2023-01-15T05:59:20.928Z,3.92
2023-01-15T06:02:23.514Z,12.55
2023-01-15T06:05:26.060Z,5.40
2023-01-15T06:08:28.718Z,9.13
2023-01-15T06:11:31.368Z,6.15
2023-01-15T06:14:33.942Z,4.55
2023-01-15T06:17:36.499Z,5.05
2023-01-15T06:20:40.054Z,4.57
2023-01-15T06:23:43.336Z,4.53
2023-01-15T06:26:46.394Z,3.90
2023-01-15T06:29:48.915Z,3.03
2023-01-15T06:32:51.456Z,6.05
2023-01-15T06:35:54.049Z,5.65
2023-01-15T06:38:56.751Z,6.30
2023-01-15T06:42:17.840Z,2.95
2023-01-15T06:45:39.096Z,2.83
2023-01-15T06:48:41.761Z,4.35
2023-01-15T06:51:44.260Z,3.92
2023-01-15T06:54:46.894Z,3.85
2023-01-15T06:57:49.571Z,4.53
2023-01-15T07:00:57.568Z,2.45
2023-01-15T07:04:00.284Z,2.55
2023-01-15T07:07:02.912Z,2.55
2023-01-15T07:10:06.239Z,4.95
2023-01-15T07:13:10.184Z,4.72
2023-01-15T07:16:27.954Z,2.92
2023-01-15T07:19:30.742Z,2.70
2023-01-15T07:22:33.515Z,5.18
2023-01-15T07:25:36.333Z,3.55
2023-01-15T07:28:39.079Z,1.45
2023-01-15T07:31:42.255Z,3.38
2023-01-15T07:34:44.954Z,1.70
2023-01-15T07:37:52.783Z,2.83
2023-01-15T07:41:18.970Z,1.77
2023-01-15T07:44:40.783Z,4.88
2023-01-15T07:48:01.838Z,2.88
2023-01-15T07:51:04.621Z,2.03
2023-01-15T07:54:07.567Z,2.35
2023-01-15T07:57:10.704Z,2.53
2023-01-15T08:00:16.136Z,2.42
2023-01-15T08:03:19.087Z,3.08
2023-01-15T08:06:21.824Z,5.30
2023-01-15T08:09:26.244Z,2.25
2023-01-15T08:12:47.568Z,5.47
2023-01-15T08:15:50.436Z,6.90
2023-01-15T08:18:53.214Z,5.28
2023-01-15T08:21:57.332Z,3.33
2023-01-15T08:25:00.536Z,2.60
2023-01-15T08:28:03.867Z,2.95
2023-01-15T08:31:08.884Z,2.63
2023-01-15T08:34:12.227Z,3.88
2023-01-15T08:37:15.451Z,3.58
2023-01-15T08:40:18.518Z,2.83
2023-01-15T08:43:21.395Z,4.47
2023-01-15T08:46:24.040Z,3.08
2023-01-15T08:49:26.880Z,3.20
2023-01-15T08:52:29.755Z,4.10
2023-01-15T08:55:33.135Z,3.53
2023-01-15T08:58:36.036Z,2.15
2023-01-15T09:01:39.135Z,3.42
2023-01-15T09:04:42.269Z,4.10
2023-01-15T09:07:45.127Z,3.90
2023-01-15T09:10:48.619Z,2.67
2023-01-15T09:13:54.753Z,3.88
2023-01-15T09:16:58.171Z,2.90
2023-01-15T09:20:01.480Z,2.15
2023-01-15T09:23:04.202Z,6.72
2023-01-15T09:26:08.300Z,5.40
2023-01-15T09:29:11.189Z,7.32
2023-01-15T09:32:14.082Z,5.40
2023-01-15T09:35:17.084Z,5.18
2023-01-15T09:38:21.566Z,2.97
2023-01-15T09:41:44.224Z,2.13
2023-01-15T09:44:46.839Z,5.22
2023-01-15T09:47:52.175Z,3.88
2023-01-15T09:50:54.754Z,2.63
2023-01-15T09:54:18.193Z,3.42
2023-01-15T09:57:22.931Z,5.30
2023-01-15T10:00:27.907Z,3.92
2023-01-15T10:03:42.284Z,2.78
2023-01-15T10:06:46.081Z,4.22
2023-01-15T10:10:03.992Z,2.25
2023-01-15T10:13:24.502Z,3.28
2023-01-15T10:16:30.351Z,5.57
2023-01-15T10:19:44.139Z,5.10
2023-01-15T10:22:51.026Z,6.22
2023-01-15T10:26:22.270Z,4.33
2023-01-15T10:29:47.176Z,2.97
2023-01-15T10:33:03.081Z,3.10
2023-01-15T10:36:21.683Z,4.70
2023-01-15T10:39:34.317Z,6.20
2023-01-15T10:42:40.875Z,4.47
2023-01-15T10:45:54.321Z,3.08
2023-01-15T10:49:00.061Z,7.07
2023-01-15T10:52:25.977Z,3.78
2023-01-15T10:55:37.437Z,3.60
2023-01-15T10:58:55.535Z,7.30
2023-01-15T11:02:00.220Z,3.80
2023-01-15T11:05:03.731Z,6.43
2023-01-15T11:08:45.207Z,4.82
2023-01-15T11:11:59.873Z,3.75
2023-01-15T11:15:33.221Z,5.22
2023-01-15T11:18:59.145Z,3.38
2023-01-15T11:22:09.955Z,6.95
2023-01-15T11:25:12.952Z,5.55
2023-01-15T11:28:16.661Z,4.18
2023-01-15T11:31:20.032Z,3.83
2023-01-15T11:34:24.473Z,4.55
2023-01-15T11:37:28.210Z,4.85
2023-01-15T11:40:30.892Z,9.50
2023-01-15T11:43:52.164Z,5.85
2023-01-15T11:47:14.411Z,3.88
2023-01-15T11:50:36.939Z,6.07
2023-01-15T11:53:50.763Z,5.28
2023-01-15T11:56:55.178Z,5.63
2023-01-15T11:59:58.479Z,7.22
2023-01-15T12:03:06.337Z,4.13
2023-01-15T12:06:12.354Z,6.50
2023-01-15T12:09:34.960Z,7.13
2023-01-15T12:13:04.822Z,7.70
2023-01-15T12:16:19.337Z,5.68
2023-01-15T12:19:40.664Z,8.70
2023-01-15T12:23:08.893Z,6.47
2023-01-15T12:26:28.022Z,6.60
2023-01-15T12:29:39.874Z,5.55
2023-01-15T12:32:46.104Z,6.60
2023-01-15T12:35:57.122Z,7.23
2023-01-15T12:39:10.629Z,7.75
2023-01-15T12:42:36.387Z,8.68
2023-01-15T12:45:43.168Z,6.13
2023-01-15T12:48:51.797Z,11.90
2023-01-15T12:52:07.515Z,6.35
2023-01-15T12:55:16.680Z,7.93
2023-01-15T12:58:55.183Z,7.82
2023-01-15T13:02:53.966Z,7.93
2023-01-15T13:06:00.585Z,7.43
2023-01-15T13:09:09.316Z,6.30
2023-01-15T13:12:16.041Z,7.20
2023-01-15T13:15:21.052Z,8.32
2023-01-15T13:18:53.061Z,7.97
2023-01-15T13:22:00.629Z,6.82
2023-01-15T13:25:29.636Z,9.15
2023-01-15T13:28:52.505Z,7.20
2023-01-15T13:32:07.590Z,8.40
2023-01-15T13:35:32.940Z,10.88
2023-01-15T13:38:40.988Z,7.07
2023-01-15T13:42:02.846Z,6.18
2023-01-15T13:45:26.869Z,7.75
2023-01-15T13:48:36.816Z,5.60
2023-01-15T13:51:43.778Z,5.80
2023-01-15T13:54:50.159Z,11.88
2023-01-15T13:57:53.211Z,5.43
2023-01-15T14:01:09.138Z,5.65
2023-01-15T14:04:15.718Z,7.15
2023-01-15T14:07:35.402Z,7.97
2023-01-15T14:10:39.636Z,7.72
2023-01-15T14:13:47.249Z,9.25
2023-01-15T14:17:02.827Z,6.90
2023-01-15T14:20:12.084Z,10.55
2023-01-15T14:23:34.818Z,8.77
2023-01-15T14:26:56.471Z,10.10
2023-01-15T14:30:18.045Z,10.85
2023-01-15T14:33:58.329Z,9.68
2023-01-15T14:37:08.474Z,8.38
2023-01-15T14:40:20.244Z,10.18
2023-01-15T14:43:26.205Z,14.02
2023-01-15T14:46:34.462Z,18.35
2023-01-15T14:49:50.174Z,10.75
2023-01-15T14:52:55.218Z,6.47
2023-01-15T14:56:13.196Z,11.88
2023-01-15T14:59:20.608Z,10.18
2023-01-15T15:02:31.826Z,9.40
2023-01-15T15:05:35.467Z,7.18
2023-01-15T15:08:41.688Z,8.15
2023-01-15T15:12:06.262Z,13.27
2023-01-15T15:15:27.536Z,8.85
2023-01-15T15:18:30.424Z,5.97
2023-01-15T15:21:44.208Z,9.65
2023-01-15T15:24:50.337Z,9.90
2023-01-15T15:28:06.964Z,8.25
2023-01-15T15:31:11.301Z,12.93
2023-01-15T15:34:26.928Z,9.85
2023-01-15T15:37:29.880Z,8.82
2023-01-15T15:40:35.348Z,10.02
2023-01-15T15:44:07.730Z,10.57
2023-01-15T15:47:47.221Z,7.40
2023-01-15T15:50:49.901Z,10.75
2023-01-15T15:54:21.542Z,8.02
2023-01-15T15:57:24.307Z,10.80
2023-01-15T16:00:41.696Z,7.50
2023-01-15T16:03:48.408Z,8.65
2023-01-15T16:06:52.851Z,9.32
2023-01-15T16:10:01.060Z,7.63
2023-01-15T16:13:07.937Z,12.13
2023-01-15T16:16:11.871Z,11.07
2023-01-15T16:19:19.809Z,10.75
2023-01-15T16:22:23.189Z,9.60
2023-01-15T16:25:31.103Z,8.00
2023-01-15T16:28:40.459Z,10.30
2023-01-15T16:31:43.484Z,9.30
2023-01-15T16:34:46.481Z,6.93
2023-01-15T16:37:51.613Z,7.85
2023-01-15T16:40:54.734Z,9.18
2023-01-15T16:44:00.599Z,10.10
2023-01-15T16:47:04.470Z,8.68
2023-01-15T16:50:22.740Z,9.05
2023-01-15T16:53:38.567Z,11.07
2023-01-15T16:56:42.453Z,9.40
2023-01-15T16:59:45.129Z,7.80
2023-01-15T17:02:47.945Z,16.27
2023-01-15T17:05:53.962Z,7.45
2023-01-15T17:08:58.266Z,11.13
2023-01-15T17:12:07.290Z,8.25
2023-01-15T17:15:20.526Z,9.68
2023-01-15T17:18:27.932Z,6.05
2023-01-15T17:21:31.840Z,12.15
2023-01-15T17:24:34.935Z,10.30
2023-01-15T17:27:37.704Z,12.27
2023-01-15T17:30:40.348Z,9.05
2023-01-15T17:33:43.197Z,11.57
2023-01-15T17:36:46.203Z,5.40
2023-01-15T17:39:48.916Z,5.93
2023-01-15T17:42:52.194Z,4.43
2023-01-15T17:45:55.367Z,4.13
2023-01-15T17:48:58.193Z,3.85
2023-01-15T17:52:01.816Z,4.10
2023-01-15T17:55:23.621Z,4.30
2023-01-15T17:58:44.953Z,10.23
2023-01-15T18:02:07.032Z,7.15
2023-01-15T18:05:27.336Z,12.05
2023-01-15T18:08:30.600Z,7.53
2023-01-15T18:11:33.324Z,13.43
2023-01-15T18:14:36.016Z,7.60
2023-01-15T18:17:38.747Z,7.93
2023-01-15T18:20:41.436Z,7.88
2023-01-15T18:23:44.228Z,6.38
2023-01-15T18:26:47.014Z,10.18
2023-01-15T18:29:49.853Z,7.47
2023-01-15T18:32:53.421Z,11.52
2023-01-15T18:36:04.292Z,12.07
2023-01-15T18:39:08.106Z,13.80
2023-01-15T18:42:11.136Z,19.33
2023-01-15T18:45:32.504Z,15.25
2023-01-15T18:48:35.293Z,15.45
2023-01-15T18:51:38.070Z,11.00
2023-01-15T18:54:40.763Z,12.10
2023-01-15T18:57:43.571Z,10.90
2023-01-15T19:00:46.614Z,16.80
2023-01-15T19:03:49.477Z,10.50
2023-01-15T19:06:52.665Z,6.00
2023-01-15T19:09:55.357Z,17.77
2023-01-15T19:12:58.387Z,14.57
2023-01-15T19:16:19.783Z,16.60
2023-01-15T19:19:22.827Z,15.23
2023-01-15T19:22:43.900Z,7.35
2023-01-15T19:25:49.723Z,5.88
2023-01-15T19:28:52.532Z,8.57
2023-01-15T19:31:55.219Z,9.75
2023-01-15T19:34:59.723Z,14.02
2023-01-15T19:38:03.583Z,10.60
2023-01-15T19:41:31.555Z,8.15
2023-01-15T19:44:52.900Z,7.35
2023-01-15T19:48:14.414Z,20.50
2023-01-15T19:51:17.216Z,7.90
2023-01-15T19:54:40.124Z,7.68
2023-01-15T19:57:44.663Z,13.45
2023-01-15T20:00:49.047Z,15.65
2023-01-15T20:03:51.793Z,14.32
2023-01-15T20:06:54.567Z,13.52
2023-01-15T20:09:57.279Z,17.85
2023-01-15T20:13:18.429Z,15.35
2023-01-15T20:16:22.725Z,30.45
2023-01-15T20:19:25.721Z,23.17
2023-01-15T20:22:32.005Z,22.40
2023-01-15T20:25:35.911Z,13.63
2023-01-15T20:28:41.287Z,7.43
2023-01-15T20:31:44.251Z,126.57
2023-01-15T20:34:47.369Z,82.70
2023-01-15T20:37:51.130Z,19.10
2023-01-15T20:40:53.980Z,16.17
2023-01-15T20:44:15.419Z,12.75
2023-01-15T20:47:36.645Z,10.32
2023-01-15T20:51:01.163Z,10.23
2023-01-15T20:54:04.464Z,9.32
2023-01-15T20:57:07.539Z,9.93
2023-01-15T21:00:15.034Z,8.18
2023-01-15T21:03:18.478Z,10.02
2023-01-15T21:06:21.123Z,9.23
2023-01-15T21:09:23.759Z,23.25
2023-01-15T21:12:26.651Z,16.75
2023-01-15T21:15:29.883Z,14.88
2023-01-15T21:18:35.837Z,18.05
2023-01-15T21:21:38.937Z,17.40
2023-01-15T21:24:41.714Z,13.05
2023-01-15T21:27:44.665Z,10.63
2023-01-15T21:30:47.302Z,13.90
2023-01-15T21:33:53.208Z,10.02
2023-01-15T21:36:55.800Z,13.30
2023-01-15T21:39:58.442Z,13.43
2023-01-15T21:43:19.491Z,20.23
2023-01-15T21:46:23.681Z,32.88
2023-01-15T21:49:26.543Z,39.85
2023-01-15T21:52:30.083Z,37.10
2023-01-15T21:55:32.922Z,31.35
2023-01-15T21:58:39.625Z,29.15
2023-01-15T22:01:42.338Z,38.78
2023-01-15T22:04:45.148Z,30.92
2023-01-15T22:07:47.720Z,16.25
2023-01-15T22:10:50.559Z,21.85
2023-01-15T22:13:53.196Z,12.00
2023-01-15T22:16:57.532Z,13.63
2023-01-15T22:20:00.060Z,10.85
2023-01-15T22:23:02.577Z,6.78
2023-01-15T22:26:05.384Z,11.70
2023-01-15T22:29:08.116Z,11.13
2023-01-15T22:32:13.341Z,7.97
2023-01-15T22:35:15.952Z,11.10
2023-01-15T22:38:18.485Z,8.88
2023-01-15T22:41:41.084Z,9.10
2023-01-15T22:44:45.154Z,6.43
2023-01-15T22:47:47.667Z,8.05
2023-01-15T22:50:50.175Z,7.20
2023-01-15T22:53:57.018Z,7.50
2023-01-15T22:56:59.596Z,6.10
2023-01-15T23:00:02.595Z,30.60
2023-01-15T23:03:05.459Z,12.35
2023-01-15T23:06:10.255Z,13.02
2023-01-15T23:09:13.393Z,8.13
2023-01-15T23:12:15.944Z,9.60
2023-01-15T23:15:18.499Z,7.13
2023-01-15T23:18:22.096Z,3.22
2023-01-15T23:21:26.043Z,9.98
2023-01-15T23:24:28.558Z,10.23
2023-01-15T23:27:31.119Z,11.25
2023-01-15T23:30:33.696Z,6.22
2023-01-15T23:33:36.331Z,6.68
2023-01-15T23:36:39.226Z,14.55
2023-01-15T23:39:41.852Z,16.55
2023-01-15T23:43:02.942Z,10.07
2023-01-15T23:46:26.785Z,10.55
2023-01-15T23:49:29.466Z,9.93
2023-01-15T23:52:32.189Z,11.55
2023-01-15T23:55:34.683Z,13.60
2023-01-15T23:58:39.470Z,13.90
